Time;durP1;ratioP1;P1;durP2;ratioP2;P2;SDS_P1;SDS_P2;PMS_P1;PMS_P2;Temp;Humidity;BMP_temperature;BMP_pressure;BME280_temperature;BME280_humidity;BME280_pressure;Samples;Min_cycle;Max_cycle;Signal;HPM_P1;HPM_P2
2022/12/01 00:01:40;;;;;;;;;;;5.30;99.90;;;;;;5029181;28;20008;-73
2022/12/01 00:04:05;;;;;;;;;;;5.30;99.90;;;;;;5029240;28;19971;-72
2022/12/01 00:06:31;;;;;;;;;;;5.30;99.90;;;;;;5032091;28;20223;-76
2022/12/01 00:11:40;;;;;;;;;;;5.40;99.90;;;;;;5028989;28;19920;-72
2022/12/01 00:14:06;;;;;;;;;;;5.40;99.90;;;;;;5035510;28;19909;-73
2022/12/01 00:16:32;;;;;;;;;;;5.40;99.90;;;;;;5032699;28;19934;-73
2022/12/01 00:18:57;;;;;;;;;;;5.40;99.90;;;;;;5015328;28;20217;-72
2022/12/01 00:21:24;;;;;;;;;;;5.40;99.90;;;;;;5027782;28;19917;-73
2022/12/01 00:23:51;;;;;;;;;;;5.40;99.90;;;;;;5032458;28;19909;-73
2022/12/01 00:26:17;;;;;;;;;;;5.40;99.90;;;;;;5036550;28;19936;-73
2022/12/01 00:28:43;;;;;;;;;;;5.50;99.90;;;;;;5034516;28;19970;-73
2022/12/01 00:31:10;;;;;;;;;;;5.50;99.90;;;;;;5035487;28;20306;-72
2022/12/01 00:33:35;;;;;;;;;;;5.50;99.90;;;;;;5034929;28;19909;-73
2022/12/01 00:36:01;;;;;;;;;;;5.40;99.90;;;;;;5036230;28;19955;-75
2022/12/01 00:38:27;;;;;;;;;;;5.50;99.90;;;;;;5033825;28;19955;-76
2022/12/01 00:40:52;;;;;;;;;;;5.40;99.90;;;;;;5031036;28;19917;-73
2022/12/01 00:43:18;;;;;;;;;;;5.40;99.90;;;;;;5033996;28;20387;-73
2022/12/01 00:45:43;;;;;;;;;;;5.40;99.90;;;;;;5022844;28;19915;-73
2022/12/01 00:48:09;;;;;;;;;;;5.50;99.90;;;;;;5034041;28;19913;-76
2022/12/01 00:50:34;;;;;;;;;;;5.50;99.90;;;;;;5022118;28;19916;-72
2022/12/01 00:53:00;;;;;;;;;;;5.50;99.90;;;;;;5032408;28;19909;-73
2022/12/01 00:55:25;;;;;;;;;;;5.60;99.90;;;;;;5035763;28;19909;-72
2022/12/01 00:57:51;;;;;;;;;;;5.60;99.90;;;;;;5034337;28;20276;-73
2022/12/01 01:00:17;;;;;;;;;;;5.60;99.90;;;;;;5026510;28;19920;-72
2022/12/01 01:02:42;;;;;;;;;;;5.60;99.90;;;;;;5029322;28;19919;-73
2022/12/01 01:05:08;;;;;;;;;;;5.60;99.90;;;;;;5027709;28;19999;-73
2022/12/01 01:07:34;;;;;;;;;;;5.60;99.90;;;;;;5025044;28;19913;-73
2022/12/01 01:09:59;;;;;;;;;;;5.50;99.90;;;;;;5020998;28;19953;-73
2022/12/01 01:12:26;;;;;;;;;;;5.50;99.90;;;;;;5032202;28;19915;-73
2022/12/01 01:14:51;;;;;;;;;;;5.50;99.90;;;;;;5032468;28;19999;-74
2022/12/01 01:17:17;;;;;;;;;;;5.50;99.90;;;;;;5033777;28;19996;-73
2022/12/01 01:19:42;;;;;;;;;;;5.50;99.90;;;;;;5034373;28;19913;-73
2022/12/01 01:22:08;;;;;;;;;;;5.30;99.90;;;;;;5024483;28;19913;-73
2022/12/01 01:24:33;;;;;;;;;;;5.30;99.90;;;;;;5028991;28;19909;-73
2022/12/01 01:26:59;;;;;;;;;;;5.20;99.90;;;;;;5020472;28;19910;-72
2022/12/01 01:29:24;;;;;;;;;;;5.20;99.90;;;;;;5034236;28;19920;-73
2022/12/01 01:31:50;;;;;;;;;;;5.30;99.90;;;;;;5021778;28;20312;-77
2022/12/01 01:34:16;;;;;;;;;;;5.30;99.90;;;;;;5033002;28;19909;-73
2022/12/01 01:36:41;;;;;;;;;;;5.40;99.90;;;;;;5034332;28;19936;-73
2022/12/01 01:39:07;;;;;;;;;;;5.50;99.90;;;;;;5032964;28;19905;-73
2022/12/01 01:41:32;;;;;;;;;;;5.50;99.90;;;;;;5026768;28;19912;-73
2022/12/01 01:43:59;;;;;;;;;;;5.50;99.90;;;;;;5030985;28;19913;-73
2022/12/01 01:46:29;;;;;;;;;;;5.50;99.90;;;;;;5024959;28;19912;-73
2022/12/01 01:49:13;;;;;;;;;;;5.50;99.90;;;;;;5033798;28;19921;-76
2022/12/01 01:51:49;;;;;;;;;;;5.40;99.90;;;;;;5018727;28;19905;-73
2022/12/01 01:54:27;;;;;;;;;;;5.30;99.90;;;;;;5018677;28;20315;-76
2022/12/01 01:56:53;;;;;;;;;;;5.20;99.90;;;;;;5027210;28;19905;-73
2022/12/01 01:59:25;;;;;;;;;;;5.20;99.90;;;;;;5022592;28;19906;-72
2022/12/01 02:01:53;;;;;;;;;;;5.00;99.90;;;;;;5017635;28;19909;-77
2022/12/01 02:04:19;;;;;;;;;;;4.80;99.90;;;;;;5031606;28;19909;-73
2022/12/01 02:06:45;;;;;;;;;;;4.80;99.90;;;;;;5029587;28;19919;-72
2022/12/01 02:09:11;;;;;;;;;;;4.90;99.90;;;;;;5033089;28;20338;-73
2022/12/01 02:11:48;;;;;;;;;;;4.80;99.90;;;;;;5032760;28;19944;-73
2022/12/01 02:14:17;;;;;;;;;;;5.00;99.90;;;;;;5032032;28;19916;-73
2022/12/01 02:16:46;;;;;;;;;;;5.10;99.90;;;;;;5027941;28;19917;-73
2022/12/01 02:19:34;;;;;;;;;;;5.10;99.90;;;;;;5031044;28;20231;-74
2022/12/01 02:22:16;;;;;;;;;;;5.10;99.90;;;;;;5015221;28;19952;-72
2022/12/01 02:24:47;;;;;;;;;;;5.20;99.90;;;;;;5032756;28;19909;-73
2022/12/01 02:27:35;;;;;;;;;;;5.30;99.90;;;;;;5031984;28;19920;-73
2022/12/01 02:30:04;;;;;;;;;;;5.40;99.90;;;;;;5026871;28;20416;-73
2022/12/01 02:32:39;;;;;;;;;;;5.40;99.90;;;;;;5020506;28;20289;-73
2022/12/01 02:35:13;;;;;;;;;;;5.40;99.90;;;;;;5021827;28;19912;-74
2022/12/01 02:37:59;;;;;;;;;;;5.30;99.90;;;;;;5019707;28;19913;-73
2022/12/01 02:40:30;;;;;;;;;;;5.40;99.90;;;;;;5035482;28;19974;-74
2022/12/01 02:43:02;;;;;;;;;;;5.30;99.90;;;;;;5020927;28;19940;-73
2022/12/01 02:45:39;;;;;;;;;;;5.30;99.90;;;;;;5036230;28;19916;-73
2022/12/01 02:48:13;;;;;;;;;;;5.30;99.90;;;;;;5030635;28;20004;-73
2022/12/01 02:50:39;;;;;;;;;;;5.30;99.90;;;;;;5032036;28;20284;-73
2022/12/01 02:53:06;;;;;;;;;;;5.30;99.90;;;;;;5025401;28;19905;-73
2022/12/01 02:55:32;;;;;;;;;;;5.20;99.90;;;;;;5036695;28;19920;-74
2022/12/01 02:57:57;;;;;;;;;;;5.20;99.90;;;;;;5031546;28;19909;-73
2022/12/01 03:00:23;;;;;;;;;;;5.30;99.90;;;;;;5031302;28;19909;-73
2022/12/01 03:02:58;;;;;;;;;;;5.30;99.90;;;;;;5028508;28;19905;-76
2022/12/01 03:05:23;;;;;;;;;;;5.30;99.90;;;;;;5027714;28;20227;-73
2022/12/01 03:08:00;;;;;;;;;;;5.40;99.90;;;;;;5033889;28;19905;-73
2022/12/01 03:10:44;;;;;;;;;;;5.30;99.90;;;;;;5033547;28;20319;-74
2022/12/01 03:13:15;;;;;;;;;;;5.30;99.90;;;;;;5033436;28;19912;-73
2022/12/01 03:16:00;;;;;;;;;;;5.40;99.90;;;;;;5030483;28;20258;-75
2022/12/01 03:18:34;;;;;;;;;;;5.40;99.90;;;;;;5029444;28;19906;-73
2022/12/01 03:21:16;;;;;;;;;;;5.40;99.90;;;;;;5024813;28;19913;-76
2022/12/01 03:23:54;;;;;;;;;;;5.40;99.90;;;;;;5016238;28;19913;-73
2022/12/01 03:26:21;;;;;;;;;;;5.40;99.90;;;;;;5035177;28;20327;-80
2022/12/01 03:28:58;;;;;;;;;;;5.40;99.90;;;;;;5024128;28;20190;-74
2022/12/01 03:31:26;;;;;;;;;;;5.40;99.90;;;;;;5022652;28;20000;-73
2022/12/01 03:33:57;;;;;;;;;;;5.40;99.90;;;;;;5030478;28;20304;-74
2022/12/01 03:36:33;;;;;;;;;;;5.40;99.90;;;;;;5030227;28;19909;-74
2022/12/01 03:39:03;;;;;;;;;;;5.40;99.90;;;;;;5027250;28;19909;-73
2022/12/01 03:41:34;;;;;;;;;;;5.40;99.90;;;;;;5026033;28;19959;-74
2022/12/01 03:44:06;;;;;;;;;;;5.50;99.90;;;;;;5027509;28;19906;-73
2022/12/01 03:46:41;;;;;;;;;;;5.40;99.90;;;;;;5030398;28;19917;-73
2022/12/01 03:49:08;;;;;;;;;;;5.50;99.90;;;;;;5032081;28;19956;-73
2022/12/01 03:51:38;;;;;;;;;;;5.50;99.90;;;;;;5035576;28;19956;-72
2022/12/01 03:54:11;;;;;;;;;;;5.50;99.90;;;;;;5036667;28;19909;-75
2022/12/01 03:56:41;;;;;;;;;;;5.50;99.90;;;;;;5026037;28;19955;-72
2022/12/01 03:59:07;;;;;;;;;;;5.60;99.90;;;;;;5019263;28;19913;-73
2022/12/01 04:01:33;;;;;;;;;;;5.60;99.90;;;;;;5019175;28;20304;-73
2022/12/01 04:04:10;;;;;;;;;;;5.50;99.90;;;;;;5030534;28;20215;-73
2022/12/01 04:06:36;;;;;;;;;;;5.50;99.90;;;;;;5036451;28;19916;-73
2022/12/01 04:09:02;;;;;;;;;;;5.50;99.90;;;;;;5030393;28;19962;-74
2022/12/01 04:14:12;;;;;;;;;;;5.50;99.90;;;;;;5032262;28;19916;-73
2022/12/01 04:16:37;;;;;;;;;;;5.50;99.90;;;;;;5031849;28;19913;-72
2022/12/01 04:19:03;;;;;;;;;;;5.40;99.90;;;;;;5033835;28;20351;-73
2022/12/01 04:21:29;;;;;;;;;;;5.40;99.90;;;;;;5020380;28;19936;-73
2022/12/01 04:24:00;;;;;;;;;;;5.30;99.90;;;;;;5025982;28;19928;-77
2022/12/01 04:26:26;;;;;;;;;;;5.30;99.90;;;;;;5024209;28;20308;-73
2022/12/01 04:28:52;;;;;;;;;;;5.20;99.90;;;;;;5029955;28;20299;-73
2022/12/01 04:31:17;;;;;;;;;;;5.10;99.90;;;;;;5025264;28;19956;-73
2022/12/01 04:33:43;;;;;;;;;;;5.10;99.90;;;;;;5035635;28;19913;-74
2022/12/01 04:36:08;;;;;;;;;;;5.00;99.90;;;;;;5034366;28;20280;-75
2022/12/01 04:38:35;;;;;;;;;;;4.90;99.90;;;;;;5029398;28;19978;-73
2022/12/01 04:41:07;;;;;;;;;;;4.90;99.90;;;;;;5029984;28;20379;-73
2022/12/01 04:43:32;;;;;;;;;;;4.90;99.90;;;;;;5026769;28;19958;-73
2022/12/01 04:45:58;;;;;;;;;;;4.80;99.90;;;;;;5035786;28;20282;-73
2022/12/01 04:48:23;;;;;;;;;;;4.70;99.90;;;;;;5031058;28;20333;-73
2022/12/01 04:50:49;;;;;;;;;;;4.70;99.90;;;;;;5018040;28;19915;-73
2022/12/01 04:53:14;;;;;;;;;;;4.60;99.90;;;;;;5025743;28;19948;-73
2022/12/01 04:55:40;;;;;;;;;;;4.60;99.90;;;;;;5028287;28;20311;-74
2022/12/01 04:58:05;;;;;;;;;;;4.50;99.90;;;;;;5031265;28;19905;-76
2022/12/01 05:00:31;;;;;;;;;;;4.60;99.90;;;;;;5029901;28;20012;-73
2022/12/01 05:02:57;;;;;;;;;;;4.60;99.90;;;;;;5026044;28;19913;-72
2022/12/01 05:05:23;;;;;;;;;;;4.60;99.90;;;;;;5029532;28;19913;-73
2022/12/01 05:07:48;;;;;;;;;;;4.50;99.90;;;;;;5035415;28;19905;-76
2022/12/01 05:10:14;;;;;;;;;;;4.70;99.90;;;;;;5030920;28;20224;-72
2022/12/01 05:12:40;;;;;;;;;;;4.60;99.90;;;;;;5028740;28;19909;-73
2022/12/01 05:15:06;;;;;;;;;;;4.50;99.90;;;;;;5034401;28;19941;-73
2022/12/01 05:17:31;;;;;;;;;;;4.40;99.90;;;;;;5033857;28;19919;-73
2022/12/01 05:22:41;;;;;;;;;;;4.40;99.90;;;;;;5036880;28;20012;-76
2022/12/01 05:25:07;;;;;;;;;;;4.40;99.90;;;;;;5022282;28;19999;-73
2022/12/01 05:27:32;;;;;;;;;;;4.40;99.90;;;;;;5024721;28;19972;-73
2022/12/01 05:29:58;;;;;;;;;;;4.30;99.90;;;;;;5020494;28;20843;-72
2022/12/01 05:32:23;;;;;;;;;;;4.30;99.90;;;;;;5033745;28;19959;-73
2022/12/01 05:34:49;;;;;;;;;;;4.30;99.90;;;;;;5034536;28;19944;-72
2022/12/01 05:37:14;;;;;;;;;;;4.30;99.90;;;;;;5032917;28;19909;-73
2022/12/01 05:39:40;;;;;;;;;;;4.30;99.90;;;;;;5034855;28;19905;-73
2022/12/01 05:42:05;;;;;;;;;;;4.30;99.90;;;;;;5031693;28;20012;-73
2022/12/01 05:44:31;;;;;;;;;;;4.30;99.90;;;;;;5034841;28;20197;-73
2022/12/01 05:46:56;;;;;;;;;;;4.30;99.90;;;;;;5024269;28;20276;-73
2022/12/01 05:49:22;;;;;;;;;;;4.40;99.90;;;;;;5032874;28;20244;-74
2022/12/01 05:51:47;;;;;;;;;;;4.40;99.90;;;;;;5031584;28;20296;-73
2022/12/01 05:54:13;;;;;;;;;;;4.40;99.90;;;;;;5034835;28;19909;-72
2022/12/01 05:56:38;;;;;;;;;;;4.40;99.90;;;;;;5034484;28;20264;-73
2022/12/01 05:59:04;;;;;;;;;;;4.40;99.90;;;;;;5034309;28;20003;-73
2022/12/01 06:01:30;;;;;;;;;;;4.40;99.90;;;;;;5029257;28;19917;-73
2022/12/01 06:03:55;;;;;;;;;;;4.40;99.90;;;;;;5026279;28;20312;-73
2022/12/01 06:06:21;;;;;;;;;;;4.40;99.90;;;;;;5026263;28;20324;-73
2022/12/01 06:08:46;;;;;;;;;;;4.40;99.90;;;;;;5030844;28;19913;-74
2022/12/01 06:11:12;;;;;;;;;;;4.40;99.90;;;;;;5021472;28;19905;-73
2022/12/01 06:13:37;;;;;;;;;;;4.40;99.90;;;;;;5028216;28;19913;-73
2022/12/01 06:16:04;;;;;;;;;;;4.40;99.90;;;;;;5033697;28;19909;-77
2022/12/01 06:18:31;;;;;;;;;;;4.40;99.90;;;;;;5028954;28;19936;-73
2022/12/01 06:20:56;;;;;;;;;;;4.30;99.90;;;;;;5023704;28;20000;-74
2022/12/01 06:23:22;;;;;;;;;;;4.30;99.90;;;;;;5025405;28;20005;-73
2022/12/01 06:25:47;;;;;;;;;;;4.20;99.90;;;;;;5022899;28;19916;-73
2022/12/01 06:28:13;;;;;;;;;;;4.20;99.90;;;;;;5018473;28;19909;-73
2022/12/01 06:30:39;;;;;;;;;;;4.30;99.90;;;;;;5024908;28;19920;-73
2022/12/01 06:33:04;;;;;;;;;;;4.40;99.90;;;;;;5019539;28;19917;-73
2022/12/01 06:35:30;;;;;;;;;;;4.60;99.90;;;;;;5022907;28;19998;-73
2022/12/01 06:37:55;;;;;;;;;;;4.60;99.90;;;;;;5025566;28;20285;-73
2022/12/01 06:40:21;;;;;;;;;;;4.60;99.90;;;;;;5030335;28;19928;-72
2022/12/01 06:42:47;;;;;;;;;;;4.70;99.90;;;;;;5038489;28;20266;-74
2022/12/01 06:45:12;;;;;;;;;;;4.70;99.90;;;;;;5030626;28;19916;-74
2022/12/01 06:47:38;;;;;;;;;;;4.70;99.90;;;;;;5024646;28;19913;-74
2022/12/01 06:50:06;;;;;;;;;;;4.70;99.90;;;;;;5031746;28;19919;-73
2022/12/01 06:52:32;;;;;;;;;;;4.70;99.90;;;;;;5032125;28;20216;-73
2022/12/01 06:54:59;;;;;;;;;;;4.70;99.90;;;;;;5031664;28;19920;-73
2022/12/01 06:57:24;;;;;;;;;;;4.80;99.90;;;;;;5030273;28;20027;-73
2022/12/01 06:59:50;;;;;;;;;;;4.80;99.90;;;;;;5034128;28;19916;-78
2022/12/01 07:02:15;;;;;;;;;;;4.90;99.90;;;;;;5032627;28;20549;-73
2022/12/01 07:04:41;;;;;;;;;;;4.90;99.90;;;;;;5031362;28;20327;-73
2022/12/01 07:07:07;;;;;;;;;;;4.90;99.90;;;;;;5031634;28;19909;-73
2022/12/01 07:09:32;;;;;;;;;;;5.00;99.90;;;;;;5028904;28;19917;-74
2022/12/01 07:11:58;;;;;;;;;;;5.00;99.90;;;;;;5031210;28;19920;-74
2022/12/01 07:14:25;;;;;;;;;;;5.00;99.90;;;;;;5027670;28;20003;-73
2022/12/01 07:16:52;;;;;;;;;;;5.00;99.90;;;;;;5033510;28;20228;-75
2022/12/01 07:19:18;;;;;;;;;;;5.00;99.90;;;;;;5036968;28;19917;-73
2022/12/01 07:21:43;;;;;;;;;;;5.00;99.90;;;;;;5032802;28;19914;-73
2022/12/01 07:24:11;;;;;;;;;;;4.90;99.90;;;;;;5029503;28;20296;-73
2022/12/01 07:26:37;;;;;;;;;;;5.00;99.90;;;;;;5037036;28;19909;-74
2022/12/01 07:29:02;;;;;;;;;;;5.00;99.90;;;;;;5037257;28;19913;-73
2022/12/01 07:31:28;;;;;;;;;;;5.00;99.90;;;;;;5036946;28;19936;-73
2022/12/01 07:33:53;;;;;;;;;;;5.00;99.90;;;;;;5033454;28;19927;-73
2022/12/01 07:36:19;;;;;;;;;;;5.00;99.90;;;;;;5035853;28;19919;-73
2022/12/01 07:38:44;;;;;;;;;;;5.00;99.90;;;;;;5036044;28;19954;-73
2022/12/01 07:41:11;;;;;;;;;;;5.00;99.90;;;;;;5035329;28;19905;-73
2022/12/01 07:43:37;;;;;;;;;;;5.10;99.90;;;;;;5031371;28;19932;-77
2022/12/01 07:46:10;;;;;;;;;;;5.10;99.90;;;;;;5031175;28;20292;-73
2022/12/01 07:48:36;;;;;;;;;;;5.10;99.90;;;;;;5034752;28;19913;-73
2022/12/01 07:51:03;;;;;;;;;;;5.10;99.90;;;;;;5028523;28;19999;-76
2022/12/01 07:53:29;;;;;;;;;;;5.20;99.90;;;;;;5036178;28;19905;-77
2022/12/01 07:55:54;;;;;;;;;;;5.20;99.90;;;;;;5027587;28;20047;-77
2022/12/01 07:58:20;;;;;;;;;;;5.20;99.90;;;;;;5036968;28;20200;-76
2022/12/01 08:00:45;;;;;;;;;;;5.30;99.90;;;;;;5036366;28;19999;-73
2022/12/01 08:03:11;;;;;;;;;;;5.30;99.90;;;;;;5035868;28;19960;-72
2022/12/01 08:05:37;;;;;;;;;;;5.30;99.90;;;;;;5034215;28;19916;-72
2022/12/01 08:08:02;;;;;;;;;;;5.40;99.90;;;;;;5031065;28;19968;-72
2022/12/01 08:10:28;;;;;;;;;;;5.40;99.90;;;;;;5036611;28;19936;-73
2022/12/01 08:12:53;;;;;;;;;;;5.40;99.90;;;;;;5027251;28;19963;-73
2022/12/01 08:15:19;;;;;;;;;;;5.50;99.90;;;;;;5025842;28;19927;-73
2022/12/01 08:17:44;;;;;;;;;;;5.50;99.90;;;;;;5032213;28;20315;-77
2022/12/01 08:20:11;;;;;;;;;;;5.60;99.90;;;;;;5035203;28;19919;-73
2022/12/01 08:22:36;;;;;;;;;;;5.60;99.90;;;;;;5036099;28;19916;-72
2022/12/01 08:25:02;;;;;;;;;;;5.60;99.90;;;;;;5031938;28;20215;-73
2022/12/01 08:27:27;;;;;;;;;;;5.60;99.90;;;;;;5026568;28;20252;-73
2022/12/01 08:29:53;;;;;;;;;;;5.70;99.90;;;;;;5020801;28;20832;-72
2022/12/01 08:32:18;;;;;;;;;;;5.70;99.90;;;;;;5035259;28;19905;-73
2022/12/01 08:34:44;;;;;;;;;;;5.70;99.90;;;;;;5036188;28;19916;-72
2022/12/01 08:37:09;;;;;;;;;;;5.80;99.90;;;;;;5028755;28;19917;-73
2022/12/01 08:39:35;;;;;;;;;;;5.90;99.90;;;;;;5031577;28;19912;-73
2022/12/01 08:42:00;;;;;;;;;;;5.90;99.90;;;;;;5036144;28;19909;-73
2022/12/01 08:44:26;;;;;;;;;;;5.90;99.90;;;;;;5036537;28;20015;-77
2022/12/01 08:46:51;;;;;;;;;;;5.90;99.90;;;;;;5029505;28;19909;-73
2022/12/01 08:49:17;;;;;;;;;;;5.90;99.90;;;;;;5027578;28;19913;-73
2022/12/01 08:51:42;;;;;;;;;;;5.90;99.90;;;;;;5036156;28;19920;-73
2022/12/01 08:54:09;;;;;;;;;;;6.00;99.90;;;;;;5036172;28;20613;-74
2022/12/01 08:56:37;;;;;;;;;;;6.00;99.90;;;;;;5035086;28;19916;-73
2022/12/01 08:59:02;;;;;;;;;;;6.00;99.90;;;;;;5032240;28;19909;-73
2022/12/01 09:01:28;;;;;;;;;;;6.10;99.90;;;;;;5036138;28;19932;-77
2022/12/01 09:04:09;;;;;;;;;;;6.00;99.90;;;;;;5027706;28;19909;-73
2022/12/01 09:06:39;;;;;;;;;;;6.00;99.90;;;;;;5036326;28;19915;-73
2022/12/01 09:09:06;;;;;;;;;;;6.00;99.90;;;;;;5024148;28;19909;-73
2022/12/01 09:11:31;;;;;;;;;;;5.90;99.90;;;;;;5019467;28;19920;-73
2022/12/01 09:13:57;;;;;;;;;;;5.90;99.90;;;;;;5032151;28;19905;-73
2022/12/01 09:16:23;;;;;;;;;;;5.80;99.90;;;;;;5025946;28;19917;-78
2022/12/01 09:18:49;;;;;;;;;;;6.00;99.90;;;;;;5027670;28;19905;-73
2022/12/01 09:21:19;;;;;;;;;;;6.00;99.90;;;;;;5035201;28;20293;-73
2022/12/01 09:23:44;;;;;;;;;;;6.00;99.90;;;;;;5035878;28;19905;-73
2022/12/01 09:26:10;;;;;;;;;;;6.00;99.90;;;;;;5034248;28;20212;-73
2022/12/01 09:28:36;;;;;;;;;;;6.10;99.90;;;;;;5025100;28;20212;-72
2022/12/01 09:31:06;;;;;;;;;;;6.00;99.90;;;;;;5035275;28;19909;-73
2022/12/01 09:33:32;;;;;;;;;;;6.10;99.90;;;;;;5024898;28;20273;-77
2022/12/01 09:35:58;;;;;;;;;;;6.10;99.90;;;;;;5027218;28;20327;-73
2022/12/01 09:38:24;;;;;;;;;;;6.10;99.90;;;;;;5022641;28;19917;-72
2022/12/01 09:40:50;;;;;;;;;;;6.10;99.90;;;;;;5031501;28;19992;-73
2022/12/01 09:43:18;;;;;;;;;;;6.10;99.90;;;;;;5026619;28;20313;-72
2022/12/01 09:45:47;;;;;;;;;;;6.10;99.90;;;;;;5027278;28;19909;-73
2022/12/01 09:48:18;;;;;;;;;;;6.20;99.90;;;;;;5029636;28;19913;-73
2022/12/01 09:50:44;;;;;;;;;;;6.20;99.90;;;;;;5018235;28;19914;-73
2022/12/01 09:53:14;;;;;;;;;;;6.30;99.90;;;;;;5019454;28;19913;-73
2022/12/01 09:55:39;;;;;;;;;;;6.20;99.90;;;;;;5019409;28;20221;-73
2022/12/01 09:58:12;;;;;;;;;;;6.20;99.90;;;;;;5021012;28;19916;-73
2022/12/01 10:00:41;;;;;;;;;;;6.30;99.90;;;;;;5018519;28;19964;-72
2022/12/01 10:03:25;;;;;;;;;;;6.30;99.90;;;;;;5018229;28;19960;-72
2022/12/01 10:05:56;;;;;;;;;;;6.30;99.90;;;;;;5020368;28;19995;-73
2022/12/01 10:08:25;;;;;;;;;;;6.30;99.90;;;;;;5034756;28;19916;-71
2022/12/01 10:10:53;;;;;;;;;;;6.40;99.90;;;;;;5031498;28;19916;-80
2022/12/01 10:13:23;;;;;;;;;;;6.40;99.90;;;;;;5028251;28;19956;-78
2022/12/01 10:15:52;;;;;;;;;;;6.40;99.90;;;;;;5024604;28;19913;-72
2022/12/01 10:18:20;;;;;;;;;;;6.50;99.90;;;;;;5021359;28;19995;-77
2022/12/01 10:21:04;;;;;;;;;;;6.60;99.90;;;;;;5018814;28;19935;-73
2022/12/01 10:23:51;;;;;;;;;;;6.60;99.90;;;;;;5029105;28;19906;-73
2022/12/01 10:26:16;;;;;;;;;;;6.50;99.90;;;;;;5027411;28;19992;-72
2022/12/01 10:28:48;;;;;;;;;;;6.40;99.90;;;;;;5030088;28;20383;-72
2022/12/01 10:31:19;;;;;;;;;;;6.40;99.90;;;;;;5029881;28;19913;-72
2022/12/01 10:33:56;;;;;;;;;;;6.40;99.90;;;;;;5027266;28;19912;-72
2022/12/01 10:36:21;;;;;;;;;;;6.40;99.90;;;;;;5029240;28;19944;-72
2022/12/01 10:38:47;;;;;;;;;;;6.40;99.90;;;;;;5032462;28;19929;-75
2022/12/01 10:41:13;;;;;;;;;;;6.40;99.90;;;;;;5026368;28;19912;-72
2022/12/01 10:43:41;;;;;;;;;;;6.40;99.90;;;;;;5026208;28;19960;-72
2022/12/01 10:46:27;;;;;;;;;;;6.40;99.90;;;;;;5024850;28;19913;-72
2022/12/01 10:48:54;;;;;;;;;;;6.40;99.90;;;;;;5021310;28;19921;-73
2022/12/01 10:51:21;;;;;;;;;;;6.40;99.90;;;;;;5033800;28;19959;-76
2022/12/01 10:53:47;;;;;;;;;;;6.40;99.90;;;;;;5036212;28;20205;-72
2022/12/01 10:56:19;;;;;;;;;;;6.50;99.90;;;;;;5038111;28;19916;-73
2022/12/01 10:58:47;;;;;;;;;;;6.50;99.90;;;;;;5037888;28;19909;-72
2022/12/01 11:01:23;;;;;;;;;;;6.50;99.90;;;;;;5019517;28;19909;-73
2022/12/01 11:03:50;;;;;;;;;;;6.60;99.90;;;;;;5037295;28;20250;-72
2022/12/01 11:06:20;;;;;;;;;;;6.80;99.90;;;;;;5037694;28;19909;-75
2022/12/01 11:08:51;;;;;;;;;;;6.80;99.90;;;;;;5020564;28;20003;-73
2022/12/01 11:11:25;;;;;;;;;;;7.00;99.90;;;;;;5030106;28;19905;-72
2022/12/01 11:13:51;;;;;;;;;;;7.10;99.90;;;;;;5026886;28;20312;-77
2022/12/01 11:16:35;;;;;;;;;;;7.00;99.90;;;;;;5035472;28;20047;-72
2022/12/01 11:19:25;;;;;;;;;;;7.00;99.90;;;;;;5033633;28;19913;-72
2022/12/01 11:21:58;;;;;;;;;;;7.10;99.90;;;;;;5034404;28;19954;-72
2022/12/01 11:24:39;;;;;;;;;;;7.00;99.90;;;;;;5036618;28;19913;-73
2022/12/01 11:27:12;;;;;;;;;;;7.10;99.90;;;;;;5030009;28;19909;-72
2022/12/01 11:29:38;;;;;;;;;;;7.10;99.90;;;;;;5035759;28;19970;-72
2022/12/01 11:32:14;;;;;;;;;;;7.00;99.90;;;;;;5035747;28;20466;-73
2022/12/01 11:34:40;;;;;;;;;;;6.90;99.90;;;;;;5033496;28;20288;-73
2022/12/01 11:37:07;;;;;;;;;;;6.90;99.90;;;;;;5036106;28;20200;-73
2022/12/01 11:39:33;;;;;;;;;;;6.80;99.90;;;;;;5033098;28;20208;-72
2022/12/01 11:42:03;;;;;;;;;;;6.70;99.90;;;;;;5036901;28;19905;-72
2022/12/01 11:44:30;;;;;;;;;;;6.60;99.90;;;;;;5036432;28;20318;-72
2022/12/01 11:46:57;;;;;;;;;;;6.60;99.90;;;;;;5035432;28;19916;-72
2022/12/01 11:49:24;;;;;;;;;;;6.60;99.90;;;;;;5036349;28;19919;-72
2022/12/01 11:51:49;;;;;;;;;;;6.60;99.90;;;;;;5037165;28;19905;-72
2022/12/01 11:54:16;;;;;;;;;;;6.60;99.90;;;;;;5021386;28;19912;-72
2022/12/01 11:56:43;;;;;;;;;;;6.60;99.90;;;;;;5036165;28;19916;-72
2022/12/01 11:59:11;;;;;;;;;;;6.60;99.90;;;;;;5036109;28;19915;-77
2022/12/01 12:01:47;;;;;;;;;;;6.70;99.90;;;;;;5030785;28;19909;-72
2022/12/01 12:04:25;;;;;;;;;;;6.70;99.90;;;;;;5032963;28;19960;-72
2022/12/01 12:07:11;;;;;;;;;;;6.60;99.90;;;;;;5031063;28;19905;-72
2022/12/01 12:09:42;;;;;;;;;;;6.60;99.90;;;;;;5020286;28;20354;-73
2022/12/01 12:12:08;;;;;;;;;;;6.60;99.90;;;;;;5038948;28;19909;-73
2022/12/01 12:14:36;;;;;;;;;;;6.80;99.90;;;;;;5030419;28;19909;-73
2022/12/01 12:17:15;;;;;;;;;;;6.90;99.90;;;;;;5034619;28;19909;-73
2022/12/01 12:19:43;;;;;;;;;;;6.90;99.90;;;;;;5033199;28;19914;-72
2022/12/01 12:22:14;;;;;;;;;;;6.90;99.90;;;;;;5023976;28;20004;-77
2022/12/01 12:24:51;;;;;;;;;;;7.00;99.90;;;;;;5017446;28;20000;-72
2022/12/01 12:27:37;;;;;;;;;;;6.90;99.90;;;;;;5026914;28;20300;-72
2022/12/01 12:30:06;;;;;;;;;;;6.90;99.90;;;;;;5015367;28;19917;-71
2022/12/01 12:32:35;;;;;;;;;;;6.90;99.90;;;;;;5025146;28;20224;-73
2022/12/01 12:35:03;;;;;;;;;;;7.00;99.90;;;;;;5027128;28;19910;-78
2022/12/01 12:37:41;;;;;;;;;;;7.10;99.90;;;;;;5026186;28;20297;-72
2022/12/01 12:40:06;;;;;;;;;;;7.10;99.90;;;;;;5017665;28;19905;-72
2022/12/01 12:42:38;;;;;;;;;;;7.10;99.90;;;;;;5018656;28;20343;-74
2022/12/01 12:45:15;;;;;;;;;;;7.10;99.90;;;;;;5031037;28;19909;-71
2022/12/01 12:47:44;;;;;;;;;;;7.00;99.90;;;;;;5027640;28;20268;-72
2022/12/01 12:50:15;;;;;;;;;;;6.90;99.90;;;;;;5025274;28;19909;-72
2022/12/01 12:52:46;;;;;;;;;;;6.90;99.90;;;;;;5026956;28;20004;-72
2022/12/01 12:55:31;;;;;;;;;;;6.80;99.90;;;;;;5000097;28;19913;-74
2022/12/01 12:58:08;;;;;;;;;;;6.90;99.90;;;;;;5034813;28;19916;-71
2022/12/01 13:00:35;;;;;;;;;;;6.90;99.90;;;;;;5033501;28;19916;-72
2022/12/01 13:03:03;;;;;;;;;;;6.90;99.90;;;;;;5026245;28;19909;-72
2022/12/01 13:05:32;;;;;;;;;;;6.90;99.90;;;;;;5034125;28;19909;-72
2022/12/01 13:07:58;;;;;;;;;;;6.90;99.90;;;;;;5033829;28;20236;-72
2022/12/01 13:10:39;;;;;;;;;;;6.90;99.90;;;;;;5032498;28;19938;-72
2022/12/01 13:13:17;;;;;;;;;;;6.90;99.90;;;;;;5028702;28;19912;-72
2022/12/01 13:15:43;;;;;;;;;;;6.80;99.90;;;;;;5029205;28;19913;-73
2022/12/01 13:18:15;;;;;;;;;;;6.80;99.90;;;;;;5028278;28;19927;-72
2022/12/01 13:20:42;;;;;;;;;;;6.80;99.90;;;;;;5030484;28;19917;-72
2022/12/01 13:23:13;;;;;;;;;;;6.80;99.90;;;;;;5034148;28;19932;-72
2022/12/01 13:25:40;;;;;;;;;;;6.80;99.90;;;;;;5033679;28;19915;-72
2022/12/01 13:28:12;;;;;;;;;;;6.80;99.90;;;;;;5033155;28;19909;-72
2022/12/01 13:30:37;;;;;;;;;;;6.80;99.90;;;;;;5028408;28;19918;-72
2022/12/01 13:33:04;;;;;;;;;;;6.90;99.90;;;;;;5035323;28;19916;-72
2022/12/01 13:35:35;;;;;;;;;;;6.90;99.90;;;;;;5033295;28;19905;-72
2022/12/01 13:38:20;;;;;;;;;;;6.90;99.90;;;;;;5023973;28;20212;-71
2022/12/01 13:40:46;;;;;;;;;;;6.70;99.90;;;;;;5028860;28;19917;-72
2022/12/01 13:43:19;;;;;;;;;;;6.70;99.90;;;;;;5026209;28;19920;-75
2022/12/01 13:45:46;;;;;;;;;;;6.60;99.90;;;;;;5031106;28;19909;-72
2022/12/01 13:48:28;;;;;;;;;;;6.60;99.90;;;;;;5033867;28;19913;-72
2022/12/01 13:50:55;;;;;;;;;;;6.60;99.90;;;;;;5032670;28;19967;-72
2022/12/01 13:53:21;;;;;;;;;;;6.60;99.90;;;;;;5030245;28;19916;-77
2022/12/01 13:55:55;;;;;;;;;;;6.60;99.90;;;;;;5033080;28;19912;-72
2022/12/01 13:58:32;;;;;;;;;;;6.60;99.90;;;;;;5032195;28;19916;-73
2022/12/01 14:01:16;;;;;;;;;;;6.60;99.90;;;;;;5031455;28;20210;-72
2022/12/01 14:03:50;;;;;;;;;;;6.60;99.90;;;;;;5032527;28;19916;-72
2022/12/01 14:06:47;;;;;;;;;;;6.50;99.90;;;;;;5032949;28;19920;-72
2022/12/01 14:09:22;;;;;;;;;;;6.60;99.90;;;;;;5031535;28;20201;-72
2022/12/01 14:11:59;;;;;;;;;;;6.50;99.90;;;;;;5030205;28;19999;-71
2022/12/01 14:14:25;;;;;;;;;;;6.50;99.90;;;;;;5011919;28;19909;-73
2022/12/01 14:16:52;;;;;;;;;;;6.40;99.90;;;;;;5029838;28;19948;-72
2022/12/01 14:19:38;;;;;;;;;;;6.40;99.90;;;;;;5034547;28;19917;-77
2022/12/01 14:22:04;;;;;;;;;;;6.40;99.90;;;;;;5018020;28;19909;-72
2022/12/01 14:24:35;;;;;;;;;;;6.40;99.90;;;;;;5015335;28;20201;-78
2022/12/01 14:27:01;;;;;;;;;;;6.40;99.90;;;;;;5037303;28;20048;-78
2022/12/01 14:29:29;;;;;;;;;;;6.40;99.90;;;;;;5028084;28;19913;-72
2022/12/01 14:32:02;;;;;;;;;;;6.30;99.90;;;;;;5021870;28;19954;-73
2022/12/01 14:34:31;;;;;;;;;;;6.30;99.90;;;;;;5032259;28;20502;-77
2022/12/01 14:37:08;;;;;;;;;;;6.20;99.90;;;;;;5028484;28;20007;-72
2022/12/01 14:39:39;;;;;;;;;;;6.30;99.90;;;;;;5028584;28;19916;-73
2022/12/01 14:44:02;;;;;;;;;;;6.20;99.90;;;;;;5028423;28;19909;-72
2022/12/01 14:45:00;;;;;;;;;;;6.20;99.90;;;;;;5031042;28;19996;-72
2022/12/01 14:47:28;;;;;;;;;;;6.10;99.90;;;;;;5020206;28;19913;-72
2022/12/01 14:50:08;;;;;;;;;;;6.20;99.90;;;;;;5030118;28;19962;-72